createdAt,value
2022-10-05T00:00:49.889Z,101154.00
2022-10-05T00:03:18.301Z,101164.59
2022-10-05T00:05:46.227Z,101174.50
2022-10-05T00:08:24.279Z,101176.56
2022-10-05T00:10:52.585Z,101174.84
2022-10-05T00:13:26.321Z,101177.00
2022-10-05T00:16:04.977Z,101187.00
2022-10-05T00:18:34.353Z,101187.34
2022-10-05T00:21:02.164Z,101190.09
2022-10-05T00:23:31.593Z,101189.50
2022-10-05T00:26:14.621Z,101184.28
2022-10-05T00:28:43.015Z,101193.50
2022-10-05T00:31:32.907Z,101202.84
2022-10-05T00:34:00.499Z,101201.31
2022-10-05T00:36:28.121Z,101205.66
2022-10-05T00:38:55.799Z,101199.09
2022-10-05T00:42:10.830Z,101207.69
2022-10-05T00:44:50.962Z,101205.25
2022-10-05T00:47:49.717Z,101214.94
2022-10-05T00:50:41.990Z,101216.94
2022-10-05T00:53:28.385Z,101222.84
2022-10-05T00:56:33.310Z,101222.56
2022-10-05T00:59:25.249Z,101225.34
2022-10-05T01:01:55.767Z,101227.84
2022-10-05T01:04:38.318Z,101238.34
2022-10-05T01:07:28.019Z,101234.72
2022-10-05T01:10:06.409Z,101239.00
2022-10-05T01:12:54.401Z,101236.97
2022-10-05T01:15:27.715Z,101244.78
2022-10-05T01:18:05.904Z,101242.00
2022-10-05T01:20:36.555Z,101246.25
2022-10-05T01:23:29.357Z,101251.41
2022-10-05T01:26:08.841Z,101252.94
2022-10-05T01:28:45.820Z,101265.28
2022-10-05T01:31:20.217Z,101265.28
2022-10-05T01:34:13.357Z,101265.13
2022-10-05T01:36:49.804Z,101267.00
2022-10-05T01:39:20.704Z,101256.34
2022-10-05T01:42:24.004Z,101264.50
2022-10-05T01:45:26.292Z,101258.47
2022-10-05T01:48:10.107Z,101265.66
2022-10-05T01:50:49.759Z,101271.78
2022-10-05T01:53:25.100Z,101269.19
2022-10-05T01:55:56.815Z,101271.59
2022-10-05T01:58:34.925Z,101274.38
2022-10-05T02:01:27.672Z,101285.78
2022-10-05T02:04:17.665Z,101287.31
2022-10-05T02:06:54.175Z,101288.03
2022-10-05T02:09:28.418Z,101282.66
2022-10-05T02:12:11.882Z,101277.28
2022-10-05T02:14:44.106Z,101280.72
2022-10-05T02:17:37.160Z,101286.00
2022-10-05T02:20:11.942Z,101287.84
2022-10-05T02:22:46.667Z,101288.66
2022-10-05T02:25:18.163Z,101281.59
2022-10-05T02:28:14.236Z,101293.13
2022-10-05T02:30:57.742Z,101292.34
2022-10-05T02:33:31.306Z,101288.78
2022-10-05T02:36:33.572Z,101294.94
2022-10-05T02:39:24.577Z,101297.75
2022-10-05T02:41:57.525Z,101299.47
2022-10-05T02:44:36.184Z,101294.63
2022-10-05T02:47:28.029Z,101318.81
2022-10-05T02:50:24.441Z,101324.22
2022-10-05T02:52:59.891Z,101319.03
2022-10-05T02:55:46.288Z,101320.81
2022-10-05T02:58:27.656Z,101336.84
2022-10-05T03:00:59.076Z,101334.38
2022-10-05T03:03:39.612Z,101353.59
2022-10-05T03:06:20.838Z,101360.66
2022-10-05T03:09:01.637Z,101364.97
2022-10-05T03:12:12.798Z,101365.88
2022-10-05T03:15:24.412Z,101370.09
2022-10-05T03:18:02.232Z,101366.69
2022-10-05T03:20:55.906Z,101366.69
2022-10-05T03:23:47.896Z,101372.66
2022-10-05T03:26:24.678Z,101388.34
2022-10-05T03:28:55.633Z,101389.38
2022-10-05T03:31:51.627Z,101396.50
2022-10-05T03:34:50.799Z,101401.72
2022-10-05T03:37:42.062Z,101408.69
2022-10-05T03:40:29.534Z,101414.81
2022-10-05T03:43:24.135Z,101412.97
2022-10-05T03:46:08.897Z,101414.19
2022-10-05T03:48:54.972Z,101420.38
2022-10-05T03:51:32.900Z,101413.31
2022-10-05T03:54:11.969Z,101426.59
2022-10-05T03:57:00.655Z,101432.66
2022-10-05T03:59:38.045Z,101435.28
2022-10-05T04:02:16.769Z,101439.28
2022-10-05T04:04:56.824Z,101444.66
2022-10-05T04:08:00.268Z,101435.56
2022-10-05T04:10:40.292Z,101439.00
2022-10-05T04:13:20.419Z,101448.44
2022-10-05T04:16:10.242Z,101451.09
2022-10-05T04:18:45.524Z,101466.94
2022-10-05T04:21:34.084Z,101461.69
2022-10-05T04:24:11.681Z,101470.22
2022-10-05T04:26:39.385Z,101462.88
2022-10-05T04:29:24.859Z,101455.94
2022-10-05T04:32:17.543Z,101459.03
2022-10-05T04:34:58.087Z,101462.47
2022-10-05T04:37:48.989Z,101461.13
2022-10-05T04:40:22.975Z,101460.06
2022-10-05T04:43:09.433Z,101460.56
2022-10-05T04:46:05.161Z,101455.16
2022-10-05T04:48:54.675Z,101448.72
2022-10-05T04:51:38.105Z,101459.91
2022-10-05T04:54:41.413Z,101462.31
2022-10-05T04:57:20.056Z,101453.03
2022-10-05T05:00:06.738Z,101458.84
2022-10-05T05:02:51.528Z,101457.06
2022-10-05T05:05:31.752Z,101463.72
2022-10-05T05:08:27.948Z,101467.91
2022-10-05T05:11:05.678Z,101451.59
2022-10-05T05:14:11.080Z,101453.31
2022-10-05T05:16:44.691Z,101455.69
2022-10-05T05:19:17.758Z,101458.88
2022-10-05T05:22:03.239Z,101457.75
2022-10-05T05:24:46.109Z,101463.81
2022-10-05T05:27:41.211Z,101455.03
2022-10-05T05:30:16.769Z,101454.94
2022-10-05T05:33:12.948Z,101458.53
2022-10-05T05:36:04.555Z,101455.28
2022-10-05T05:38:56.821Z,101459.38
2022-10-05T05:41:34.815Z,101457.78
2022-10-05T05:44:28.363Z,101463.03
2022-10-05T05:47:21.050Z,101463.81
2022-10-05T05:50:16.836Z,101472.34
2022-10-05T05:52:51.820Z,101466.59
2022-10-05T05:55:30.189Z,101472.78
2022-10-05T05:58:09.393Z,101472.41
2022-10-05T06:00:43.076Z,101464.09
2022-10-05T06:03:23.275Z,101461.31
2022-10-05T06:05:59.784Z,101455.63
2022-10-05T06:08:41.793Z,101460.47
2022-10-05T06:11:37.328Z,101464.28
2022-10-05T06:14:16.296Z,101465.81
2022-10-05T06:16:55.522Z,101472.38
2022-10-05T06:19:26.632Z,101472.66
2022-10-05T06:22:02.048Z,101465.13
2022-10-05T06:24:29.749Z,101466.63
2022-10-05T06:27:16.390Z,101451.19
2022-10-05T06:30:02.822Z,101455.22
2022-10-05T06:32:49.953Z,101452.00
2022-10-05T06:35:51.125Z,101456.44
2022-10-05T06:38:37.860Z,101460.91
2022-10-05T06:41:11.812Z,101452.63
2022-10-05T06:44:00.911Z,101464.44
2022-10-05T06:47:15.475Z,101464.06
2022-10-05T06:50:35.441Z,101458.03
2022-10-05T06:53:43.314Z,101458.72
2022-10-05T06:56:16.148Z,101458.88
2022-10-05T06:58:43.644Z,101449.31
2022-10-05T07:01:36.653Z,101450.72
2022-10-05T07:04:22.574Z,101467.28
2022-10-05T07:06:55.227Z,101465.41
2022-10-05T07:09:41.884Z,101470.91
2022-10-05T07:12:31.829Z,101464.88
2022-10-05T07:15:22.276Z,101465.69
2022-10-05T07:18:21.264Z,101470.72
2022-10-05T07:21:05.661Z,101481.34
2022-10-05T07:24:02.524Z,101470.13
2022-10-05T07:26:41.201Z,101479.81
2022-10-05T07:29:19.461Z,101480.47
2022-10-05T07:32:01.389Z,101479.81
2022-10-05T07:34:57.794Z,101486.59
2022-10-05T07:37:54.907Z,101498.06
2022-10-05T07:40:34.475Z,101497.28
2022-10-05T07:43:17.338Z,101510.31
2022-10-05T07:46:11.718Z,101509.16
2022-10-05T07:49:10.986Z,101517.41
2022-10-05T07:51:47.324Z,101520.97
2022-10-05T07:54:22.049Z,101528.03
2022-10-05T07:57:03.337Z,101522.56
2022-10-05T07:59:44.837Z,101513.41
2022-10-05T08:02:41.986Z,101513.28
2022-10-05T08:05:38.421Z,101524.34
2022-10-05T08:08:15.538Z,101527.09
2022-10-05T08:10:52.155Z,101533.59
2022-10-05T08:13:38.627Z,101519.69
2022-10-05T08:16:14.717Z,101526.56
2022-10-05T08:18:49.965Z,101547.59
2022-10-05T08:21:23.556Z,101533.41
2022-10-05T08:23:55.257Z,101531.72
2022-10-05T08:26:50.569Z,101540.63
2022-10-05T08:29:32.063Z,101548.28
2022-10-05T08:32:10.624Z,101535.50
2022-10-05T08:35:17.892Z,101537.91
2022-10-05T08:37:47.891Z,101530.84
2022-10-05T08:40:45.281Z,101538.75
2022-10-05T08:43:40.789Z,101535.06
2022-10-05T08:46:29.928Z,101535.03
2022-10-05T08:49:32.823Z,101540.00
2022-10-05T08:52:36.602Z,101535.69
2022-10-05T08:55:10.179Z,101532.34
2022-10-05T08:58:17.174Z,101539.38
2022-10-05T09:01:09.694Z,101544.16
2022-10-05T09:03:56.887Z,101535.81
2022-10-05T09:07:03.316Z,101535.22
2022-10-05T09:10:08.390Z,101538.34
2022-10-05T09:12:55.108Z,101536.69
2022-10-05T09:15:41.646Z,101533.41
2022-10-05T09:18:39.767Z,101533.59
2022-10-05T09:21:21.990Z,101529.50
2022-10-05T09:24:07.061Z,101528.84
2022-10-05T09:27:02.092Z,101541.38
2022-10-05T09:29:50.917Z,101522.97
2022-10-05T09:32:57.981Z,101529.06
2022-10-05T09:35:34.564Z,101528.41
2022-10-05T09:38:13.245Z,101530.22
2022-10-05T09:41:02.180Z,101535.06
2022-10-05T09:44:00.268Z,101537.38
2022-10-05T09:46:51.922Z,101531.06
2022-10-05T09:49:50.371Z,101532.69
2022-10-05T09:52:55.327Z,101532.19
2022-10-05T09:55:53.818Z,101533.13
2022-10-05T09:58:42.685Z,101528.59
2022-10-05T10:01:34.065Z,101521.41
2022-10-05T10:04:37.551Z,101527.53
2022-10-05T10:07:24.556Z,101520.84
2022-10-05T10:10:04.792Z,101511.53
2022-10-05T10:12:37.281Z,101514.50
2022-10-05T10:15:24.230Z,101523.22
2022-10-05T10:18:02.004Z,101523.50
2022-10-05T10:20:35.454Z,101518.75
2022-10-05T10:23:10.254Z,101523.97
2022-10-05T10:25:58.561Z,101531.50
2022-10-05T10:28:47.723Z,101524.06
2022-10-05T10:31:44.078Z,101526.34
2022-10-05T10:34:23.464Z,101526.41
2022-10-05T10:37:29.569Z,101535.59
2022-10-05T10:40:20.370Z,101533.53
2022-10-05T10:43:23.646Z,101535.50
2022-10-05T10:46:07.950Z,101525.78
2022-10-05T10:48:54.537Z,101531.78
2022-10-05T10:51:32.816Z,101523.88
2022-10-05T10:54:33.872Z,101517.69
2022-10-05T10:57:03.197Z,101519.50
2022-10-05T11:00:04.594Z,101525.66
2022-10-05T11:03:17.206Z,101519.44
2022-10-05T11:05:53.939Z,101511.38
2022-10-05T11:08:53.917Z,101511.25
2022-10-05T11:11:32.849Z,101520.25
2022-10-05T11:14:24.880Z,101507.34
2022-10-05T11:17:07.597Z,101511.44
2022-10-05T11:20:04.065Z,101511.28
2022-10-05T11:22:40.133Z,101522.44
2022-10-05T11:25:20.789Z,101519.16
2022-10-05T11:28:03.494Z,101508.94
2022-10-05T11:30:36.768Z,101518.22
2022-10-05T11:33:24.434Z,101522.06
2022-10-05T11:35:51.885Z,101525.38
2022-10-05T11:38:22.194Z,101527.56
2022-10-05T11:41:18.452Z,101526.16
2022-10-05T11:44:20.215Z,101533.03
2022-10-05T11:46:59.620Z,101536.56
2022-10-05T11:49:39.661Z,101528.31
2022-10-05T11:52:12.938Z,101529.50
2022-10-05T11:55:10.391Z,101542.78
2022-10-05T11:57:57.201Z,101543.25
2022-10-05T12:00:46.572Z,101531.97
2022-10-05T12:03:29.267Z,101540.88
2022-10-05T12:05:57.044Z,101531.38
2022-10-05T12:08:30.411Z,101542.09
2022-10-05T12:11:00.752Z,101531.72
2022-10-05T12:13:45.793Z,101546.41
2022-10-05T12:16:27.608Z,101551.06
2022-10-05T12:19:05.088Z,101540.00
2022-10-05T12:21:47.317Z,101538.91
2022-10-05T12:24:31.573Z,101537.16
2022-10-05T12:27:04.711Z,101543.63
2022-10-05T12:30:07.260Z,101542.19
2022-10-05T12:32:46.595Z,101542.06
2022-10-05T12:35:29.970Z,101543.31
2022-10-05T12:38:23.070Z,101548.94
2022-10-05T12:41:14.955Z,101553.91
2022-10-05T12:44:11.506Z,101550.97
2022-10-05T12:47:02.037Z,101549.69
2022-10-05T12:49:38.784Z,101559.91
2022-10-05T12:52:18.677Z,101559.25
2022-10-05T12:55:18.234Z,101561.44
2022-10-05T12:58:17.917Z,101562.56
2022-10-05T13:01:15.911Z,101576.47
2022-10-05T13:03:54.715Z,101576.69
2022-10-05T13:06:38.035Z,101566.13
2022-10-05T13:09:50.091Z,101579.19
2022-10-05T13:12:36.220Z,101581.88
2022-10-05T13:15:06.837Z,101579.13
2022-10-05T13:17:49.719Z,101583.13
2022-10-05T13:20:39.364Z,101580.25
2022-10-05T13:23:34.914Z,101575.81
2022-10-05T13:26:16.030Z,101590.16
2022-10-05T13:28:55.783Z,101596.84
2022-10-05T13:31:50.454Z,101599.81
2022-10-05T13:34:31.755Z,101610.75
2022-10-05T13:37:04.041Z,101608.59
2022-10-05T13:39:54.602Z,101613.81
2022-10-05T13:42:33.800Z,101612.47
2022-10-05T13:45:12.526Z,101617.28
2022-10-05T13:47:45.822Z,101617.16
2022-10-05T13:50:22.329Z,101629.78
2022-10-05T13:53:33.054Z,101630.72
2022-10-05T13:56:25.292Z,101627.31
2022-10-05T13:59:13.969Z,101636.50
2022-10-05T14:01:52.664Z,101640.56
2022-10-05T14:04:28.516Z,101642.88
2022-10-05T14:06:56.754Z,101649.16
2022-10-05T14:09:34.109Z,101647.78
2022-10-05T14:12:04.345Z,101652.34
2022-10-05T14:14:42.473Z,101646.66
2022-10-05T14:17:17.402Z,101659.97
2022-10-05T14:19:48.760Z,101655.78
2022-10-05T14:22:24.271Z,101649.84
2022-10-05T14:25:10.167Z,101664.44
2022-10-05T14:27:51.097Z,101656.94
2022-10-05T14:30:23.342Z,101672.09
2022-10-05T14:33:06.368Z,101659.06
2022-10-05T14:35:50.139Z,101668.69
2022-10-05T14:38:18.693Z,101668.94
2022-10-05T14:40:46.332Z,101678.56
2022-10-05T14:43:20.104Z,101671.16
2022-10-05T14:46:02.686Z,101678.13
2022-10-05T14:48:45.472Z,101689.84
2022-10-05T14:51:28.364Z,101689.09
2022-10-05T14:54:00.190Z,101694.41
2022-10-05T14:56:50.132Z,101693.00
2022-10-05T14:59:33.125Z,101705.50
2022-10-05T15:02:35.915Z,101705.16
2022-10-05T15:05:17.254Z,101712.19
2022-10-05T15:07:49.379Z,101709.59
2022-10-05T15:10:38.197Z,101713.34
2022-10-05T15:13:13.408Z,101708.03
2022-10-05T15:16:03.418Z,101710.94
2022-10-05T15:18:32.150Z,101707.88
2022-10-05T15:21:21.079Z,101708.03
2022-10-05T15:24:02.855Z,101712.56
2022-10-05T15:26:52.634Z,101715.56
2022-10-05T15:29:22.805Z,101716.41
2022-10-05T15:32:01.285Z,101714.47
2022-10-05T15:35:01.325Z,101707.66
2022-10-05T15:37:28.866Z,101708.06
2022-10-05T15:39:59.874Z,101707.44
2022-10-05T15:42:41.285Z,101717.28
2022-10-05T15:45:32.887Z,101714.78
2022-10-05T15:48:17.505Z,101717.75
2022-10-05T15:51:01.015Z,101717.50
2022-10-05T15:53:37.920Z,101725.72
2022-10-05T15:56:11.468Z,101731.03
2022-10-05T15:59:12.131Z,101739.38
2022-10-05T16:01:51.892Z,101742.13
2022-10-05T16:04:25.167Z,101745.81
2022-10-05T16:07:22.477Z,101746.56
2022-10-05T16:10:20.069Z,101752.84
2022-10-05T16:13:06.145Z,101747.34
2022-10-05T16:15:38.691Z,101758.84
2022-10-05T16:18:42.328Z,101760.06
2022-10-05T16:21:29.727Z,101767.13
2022-10-05T16:23:57.206Z,101756.34
2022-10-05T16:26:32.767Z,101764.31
2022-10-05T16:29:11.383Z,101764.41
2022-10-05T16:32:00.446Z,101770.88
2022-10-05T16:34:59.373Z,101769.94
2022-10-05T16:37:39.093Z,101772.47
2022-10-05T16:40:28.444Z,101778.63
2022-10-05T16:43:05.664Z,101774.16
2022-10-05T16:46:01.118Z,101784.31
2022-10-05T16:48:34.514Z,101774.75
2022-10-05T16:51:17.014Z,101785.38
2022-10-05T16:54:24.419Z,101784.63
2022-10-05T16:56:59.430Z,101778.44
2022-10-05T16:59:45.176Z,101779.34
2022-10-05T17:02:39.836Z,101785.53
2022-10-05T17:05:49.164Z,101785.97
2022-10-05T17:08:58.265Z,101786.84
2022-10-05T17:11:52.740Z,101786.84
2022-10-05T17:14:39.715Z,101782.53
2022-10-05T17:17:19.070Z,101792.44
2022-10-05T17:20:09.601Z,101788.91
2022-10-05T17:22:48.069Z,101787.38
2022-10-05T17:25:24.378Z,101789.97
2022-10-05T17:28:18.426Z,101789.00
2022-10-05T17:31:12.679Z,101792.63
2022-10-05T17:33:59.857Z,101795.41
2022-10-05T17:36:47.671Z,101797.31
2022-10-05T17:39:18.227Z,101793.56
2022-10-05T17:41:47.054Z,101790.28
2022-10-05T17:44:16.339Z,101787.34
2022-10-05T17:46:47.616Z,101790.28
2022-10-05T17:49:34.438Z,101797.59
2022-10-05T17:52:42.463Z,101794.00
2022-10-05T17:55:30.698Z,101792.28
2022-10-05T17:58:19.764Z,101800.44
2022-10-05T18:00:57.346Z,101806.94
2022-10-05T18:03:42.021Z,101805.06
2022-10-05T18:06:33.373Z,101813.88
2022-10-05T18:09:17.487Z,101814.94
2022-10-05T18:12:02.323Z,101817.38
2022-10-05T18:15:08.107Z,101811.34
2022-10-05T18:17:41.206Z,101817.31
2022-10-05T18:20:28.684Z,101815.94
2022-10-05T18:23:21.991Z,101828.28
2022-10-05T18:26:01.427Z,101820.25
2022-10-05T18:29:13.706Z,101813.78
2022-10-05T18:32:01.280Z,101825.28
2022-10-05T18:34:39.723Z,101826.28
2022-10-05T18:37:16.758Z,101828.94
2022-10-05T18:40:26.022Z,101829.03
2022-10-05T18:43:29.614Z,101834.25
2022-10-05T18:46:00.042Z,101827.06
2022-10-05T18:48:34.401Z,101821.69
2022-10-05T18:51:31.050Z,101831.03
2022-10-05T18:54:07.518Z,101827.56
2022-10-05T18:56:49.585Z,101825.72
2022-10-05T18:59:38.962Z,101828.31
2022-10-05T19:02:11.125Z,101830.09
2022-10-05T19:05:00.583Z,101833.81
2022-10-05T19:07:41.109Z,101839.03
2022-10-05T19:10:21.668Z,101846.09
2022-10-05T19:13:01.831Z,101847.31
2022-10-05T19:15:41.720Z,101850.03
2022-10-05T19:18:47.233Z,101845.66
2022-10-05T19:21:51.867Z,101849.53
2022-10-05T19:24:46.136Z,101858.16
2022-10-05T19:27:44.429Z,101852.06
2022-10-05T19:30:18.089Z,101859.13
2022-10-05T19:33:07.259Z,101855.41
2022-10-05T19:35:59.464Z,101851.97
2022-10-05T19:38:56.577Z,101847.03
2022-10-05T19:41:45.003Z,101846.19
2022-10-05T19:44:21.069Z,101853.38
2022-10-05T19:47:05.768Z,101854.13
2022-10-05T19:49:39.950Z,101851.47
2022-10-05T19:52:22.832Z,101858.53
2022-10-05T19:55:04.708Z,101862.00
2022-10-05T19:57:32.431Z,101855.09
2022-10-05T19:59:59.937Z,101868.28
2022-10-05T20:02:28.037Z,101870.75
2022-10-05T20:05:07.126Z,101872.47
2022-10-05T20:07:37.743Z,101875.97
2022-10-05T20:10:29.457Z,101875.28
2022-10-05T20:13:02.493Z,101875.28
2022-10-05T20:15:51.333Z,101866.31
2022-10-05T20:18:56.259Z,101867.09
2022-10-05T20:21:45.744Z,101877.28
2022-10-05T20:24:15.995Z,101873.69
2022-10-05T20:27:02.710Z,101873.75
2022-10-05T20:29:33.579Z,101885.38
2022-10-05T20:32:08.906Z,101875.91
2022-10-05T20:34:37.672Z,101882.06
2022-10-05T20:37:05.173Z,101880.47
2022-10-05T20:39:34.825Z,101885.66
2022-10-05T20:42:02.406Z,101874.53
2022-10-05T20:44:30.898Z,101877.47
2022-10-05T20:46:58.748Z,101879.88
2022-10-05T20:49:26.545Z,101881.59
2022-10-05T20:51:55.854Z,101889.53
2022-10-05T20:54:24.881Z,101892.44
2022-10-05T20:56:54.065Z,101890.91
2022-10-05T20:59:23.324Z,101887.38
2022-10-05T21:01:51.268Z,101888.16
2022-10-05T21:04:24.128Z,101898.94
2022-10-05T21:06:52.931Z,101905.94
2022-10-05T21:09:21.630Z,101893.63
2022-10-05T21:11:51.644Z,101907.66
2022-10-05T21:14:19.105Z,101906.06
2022-10-05T21:16:46.635Z,101902.50
2022-10-05T21:19:15.233Z,101891.75
2022-10-05T21:21:46.515Z,101889.25
2022-10-05T21:24:15.980Z,101890.16
2022-10-05T21:26:44.844Z,101883.97
2022-10-05T21:29:13.402Z,101874.19
2022-10-05T21:31:41.654Z,101881.34
2022-10-05T21:34:09.295Z,101874.97
2022-10-05T21:36:36.839Z,101871.31
2022-10-05T21:39:04.751Z,101862.38
2022-10-05T21:41:32.460Z,101857.06
2022-10-05T21:43:59.981Z,101867.88
2022-10-05T21:46:29.665Z,101884.72
2022-10-05T21:48:57.157Z,101880.22
2022-10-05T21:51:26.435Z,101877.03
2022-10-05T21:54:01.771Z,101871.66
2022-10-05T21:56:36.714Z,101879.69
2022-10-05T21:59:08.296Z,101878.81
2022-10-05T22:01:36.124Z,101875.31
2022-10-05T22:04:04.769Z,101875.44
2022-10-05T22:06:33.694Z,101886.19
2022-10-05T22:09:01.561Z,101880.94
2022-10-05T22:11:29.642Z,101875.66
2022-10-05T22:14:03.400Z,101878.41
2022-10-05T22:16:38.234Z,101878.56
2022-10-05T22:19:10.696Z,101888.22
2022-10-05T22:21:41.828Z,101893.41
2022-10-05T22:24:13.424Z,101884.56
2022-10-05T22:26:43.726Z,101896.00
2022-10-05T22:29:11.866Z,101894.16
2022-10-05T22:31:39.632Z,101896.94
2022-10-05T22:34:07.424Z,101886.25
2022-10-05T22:36:35.873Z,101885.41
2022-10-05T22:39:04.289Z,101879.22
2022-10-05T22:41:32.702Z,101891.41
2022-10-05T22:44:00.935Z,101888.97
2022-10-05T22:46:28.783Z,101891.63
2022-10-05T22:48:56.689Z,101882.59
2022-10-05T22:51:24.299Z,101899.31
2022-10-05T22:53:52.078Z,101896.78
2022-10-05T22:56:19.987Z,101892.34
2022-10-05T22:58:48.072Z,101895.84
2022-10-05T23:01:18.459Z,101902.03
2022-10-05T23:03:46.712Z,101906.34
2022-10-05T23:06:17.043Z,101899.44
2022-10-05T23:08:46.494Z,101896.66
2022-10-05T23:11:21.325Z,101900.22
2022-10-05T23:13:50.831Z,101902.88
2022-10-05T23:16:20.555Z,101899.44
2022-10-05T23:18:51.585Z,101896.78
2022-10-05T23:21:20.837Z,101898.50
2022-10-05T23:23:51.152Z,101888.22
2022-10-05T23:26:21.150Z,101896.19
2022-10-05T23:28:49.680Z,101894.41
2022-10-05T23:31:21.879Z,101898.69
2022-10-05T23:33:49.837Z,101890.75
2022-10-05T23:36:26.072Z,101889.88
2022-10-05T23:38:54.277Z,101889.88
2022-10-05T23:41:22.060Z,101891.06
2022-10-05T23:43:49.567Z,101883.13
2022-10-05T23:46:17.998Z,101880.34
2022-10-05T23:48:45.714Z,101887.44
2022-10-05T23:51:14.521Z,101889.09
2022-10-05T23:53:43.415Z,101887.38
2022-10-05T23:56:11.169Z,101894.41
2022-10-05T23:58:38.955Z,101888.50
